createdAt,value
2018-09-17T00:00:28.285Z,14.40
2018-09-17T00:02:55.790Z,14.44
2018-09-17T00:05:23.233Z,14.34
2018-09-17T00:07:50.708Z,14.35
2018-09-17T00:10:18.152Z,14.28
2018-09-17T00:12:45.623Z,14.33
2018-09-17T00:15:13.082Z,14.34
2018-09-17T00:17:40.569Z,14.32
2018-09-17T00:20:08.018Z,14.27
2018-09-17T00:22:35.501Z,14.30
2018-09-17T00:25:02.956Z,14.31
2018-09-17T00:27:30.422Z,14.25
2018-09-17T00:29:57.952Z,14.24
2018-09-17T00:32:25.410Z,14.22
2018-09-17T00:34:52.889Z,14.26
2018-09-17T00:37:20.330Z,14.30
2018-09-17T00:39:47.878Z,14.23
2018-09-17T00:42:15.338Z,14.26
2018-09-17T00:44:42.721Z,14.18
2018-09-17T00:47:10.129Z,14.25
2018-09-17T00:49:37.618Z,14.28
2018-09-17T00:52:05.073Z,14.19
2018-09-17T00:54:32.553Z,14.26
2018-09-17T00:56:59.990Z,14.33
2018-09-17T00:59:28.154Z,14.28
2018-09-17T01:01:55.698Z,14.32
2018-09-17T01:04:23.124Z,14.27
2018-09-17T01:06:51.754Z,14.26
2018-09-17T01:09:24.946Z,14.27
2018-09-17T01:11:52.379Z,14.23
2018-09-17T01:14:20.697Z,14.29
2018-09-17T01:16:48.132Z,14.32
2018-09-17T01:19:15.616Z,14.28
2018-09-17T01:21:43.059Z,14.32
2018-09-17T01:24:10.495Z,14.20
2018-09-17T01:26:37.968Z,14.18
2018-09-17T01:29:05.448Z,14.18
2018-09-17T01:31:32.866Z,14.12
2018-09-17T01:34:00.440Z,14.15
2018-09-17T01:36:27.814Z,14.07
2018-09-17T01:38:55.343Z,14.11
2018-09-17T01:41:22.765Z,14.22
2018-09-17T01:43:50.213Z,14.30
2018-09-17T01:46:17.903Z,14.48
2018-09-17T01:48:45.418Z,14.57
2018-09-17T01:51:12.949Z,14.61
2018-09-17T01:53:40.514Z,14.64
2018-09-17T01:56:07.967Z,14.52
2018-09-17T01:58:35.425Z,14.52
2018-09-17T02:01:02.883Z,14.42
2018-09-17T02:03:30.416Z,14.42
2018-09-17T02:05:57.932Z,14.46
2018-09-17T02:08:25.485Z,14.43
2018-09-17T02:10:53.011Z,14.41
2018-09-17T02:13:20.621Z,14.44
2018-09-17T02:15:48.058Z,14.44
2018-09-17T02:18:15.525Z,14.40
2018-09-17T02:20:42.973Z,14.38
2018-09-17T02:23:10.437Z,14.38
2018-09-17T02:25:37.962Z,14.37
2018-09-17T02:28:05.457Z,14.27
2018-09-17T02:30:32.937Z,14.26
2018-09-17T02:33:00.401Z,14.31
2018-09-17T02:35:27.909Z,14.31
2018-09-17T02:37:55.374Z,14.27
2018-09-17T02:40:22.929Z,14.29
2018-09-17T02:42:50.744Z,14.35
2018-09-17T02:45:19.130Z,14.32
2018-09-17T02:47:47.098Z,14.31
2018-09-17T02:50:14.517Z,14.35
2018-09-17T02:52:41.993Z,14.34
2018-09-17T02:55:09.485Z,14.32
2018-09-17T02:57:37.434Z,14.28
2018-09-17T03:00:05.664Z,14.25
2018-09-17T03:02:33.162Z,14.15
2018-09-17T03:05:00.534Z,14.08
2018-09-17T03:07:28.048Z,14.28
2018-09-17T03:09:55.629Z,14.26
2018-09-17T03:12:23.022Z,14.30
2018-09-17T03:14:50.514Z,14.34
2018-09-17T03:17:18.493Z,14.43
2018-09-17T03:19:46.049Z,14.42
2018-09-17T03:22:14.074Z,14.39
2018-09-17T03:24:41.617Z,14.58
2018-09-17T03:27:09.261Z,14.53
2018-09-17T03:29:36.698Z,14.66
2018-09-17T03:32:04.272Z,14.65
2018-09-17T03:34:31.662Z,14.71
2018-09-17T03:36:59.193Z,14.80
2018-09-17T03:39:26.726Z,14.84
2018-09-17T03:41:54.164Z,14.77
2018-09-17T03:44:22.106Z,14.80
2018-09-17T03:46:49.524Z,14.79
2018-09-17T03:49:16.984Z,14.85
2018-09-17T03:51:44.417Z,14.78
2018-09-17T03:54:12.578Z,14.72
2018-09-17T03:56:40.036Z,14.70
2018-09-17T03:59:07.522Z,14.71
2018-09-17T04:01:35.499Z,14.83
2018-09-17T04:04:02.863Z,14.78
2018-09-17T04:06:30.278Z,14.75
2018-09-17T04:08:57.701Z,14.67
2018-09-17T04:11:25.158Z,14.78
2018-09-17T04:13:52.618Z,14.70
2018-09-17T04:16:20.036Z,14.74
2018-09-17T04:18:47.485Z,14.72
2018-09-17T04:21:15.053Z,14.61
2018-09-17T04:23:42.493Z,14.65
2018-09-17T04:26:11.021Z,14.64
2018-09-17T04:28:38.647Z,14.63
2018-09-17T04:31:06.257Z,14.59
2018-09-17T04:33:39.252Z,14.54
2018-09-17T04:36:07.025Z,14.52
2018-09-17T04:38:34.513Z,14.46
2018-09-17T04:41:02.283Z,14.43
2018-09-17T04:43:29.812Z,14.39
2018-09-17T04:45:58.035Z,14.35
2018-09-17T04:48:25.483Z,14.26
2018-09-17T04:50:53.018Z,14.32
2018-09-17T04:53:20.596Z,14.25
2018-09-17T04:55:48.803Z,14.28
2018-09-17T04:58:16.296Z,14.24
2018-09-17T05:00:43.741Z,14.25
2018-09-17T05:03:11.185Z,14.27
2018-09-17T05:05:38.587Z,14.24
2018-09-17T05:08:06.162Z,14.18
2018-09-17T05:10:34.063Z,14.23
2018-09-17T05:13:01.548Z,14.18
2018-09-17T05:15:28.908Z,14.18
2018-09-17T05:17:56.359Z,14.22
2018-09-17T05:20:23.825Z,14.16
2018-09-17T05:22:51.299Z,14.15
2018-09-17T05:25:18.688Z,14.13
2018-09-17T05:27:46.177Z,14.12
2018-09-17T05:30:13.689Z,14.04
2018-09-17T05:32:41.121Z,14.11
2018-09-17T05:35:08.694Z,14.11
2018-09-17T05:37:36.118Z,14.12
2018-09-17T05:40:03.585Z,14.16
2018-09-17T05:42:31.536Z,14.19
2018-09-17T05:44:59.025Z,14.23
2018-09-17T05:47:27.114Z,14.30
2018-09-17T05:49:54.628Z,14.31
2018-09-17T05:52:22.077Z,14.33
2018-09-17T05:54:49.536Z,14.36
2018-09-17T05:57:17.005Z,14.33
2018-09-17T05:59:44.682Z,14.38
2018-09-17T06:02:12.089Z,14.41
2018-09-17T06:04:39.534Z,14.50
2018-09-17T06:07:07.116Z,14.54
2018-09-17T06:09:34.544Z,14.55
2018-09-17T06:12:02.030Z,14.55
2018-09-17T06:14:29.552Z,14.58
2018-09-17T06:16:57.131Z,14.59
2018-09-17T06:19:24.880Z,14.62
2018-09-17T06:21:52.309Z,14.67
2018-09-17T06:24:20.697Z,14.66
2018-09-17T06:26:48.968Z,14.71
2018-09-17T06:29:16.671Z,14.72
2018-09-17T06:31:44.204Z,14.74
2018-09-17T06:34:11.627Z,14.82
2018-09-17T06:36:39.121Z,14.89
2018-09-17T06:39:07.908Z,14.92
2018-09-17T06:41:35.387Z,15.04
2018-09-17T06:44:03.041Z,15.07
2018-09-17T06:46:30.529Z,15.03
2018-09-17T06:48:58.749Z,15.22
2018-09-17T06:51:26.259Z,15.31
2018-09-17T06:53:53.842Z,15.39
2018-09-17T06:56:21.447Z,15.52
2018-09-17T06:58:49.188Z,15.60
2018-09-17T07:01:16.894Z,15.76
2018-09-17T07:03:44.430Z,15.86
2018-09-17T07:06:11.909Z,15.91
2018-09-17T07:08:39.355Z,16.09
2018-09-17T07:11:08.245Z,16.19
2018-09-17T07:13:35.783Z,16.34
2018-09-17T07:16:03.313Z,16.46
2018-09-17T07:18:30.783Z,16.55
2018-09-17T07:20:58.282Z,16.66
2018-09-17T07:23:25.807Z,16.81
2018-09-17T07:25:53.449Z,16.98
2018-09-17T07:28:20.928Z,17.04
2018-09-17T07:30:48.684Z,17.17
2018-09-17T07:33:16.178Z,17.25
2018-09-17T07:35:43.750Z,17.41
2018-09-17T07:38:11.266Z,17.56
2018-09-17T07:40:39.143Z,17.62
2018-09-17T07:43:06.595Z,17.67
2018-09-17T07:45:34.167Z,17.53
2018-09-17T07:48:01.586Z,17.86
2018-09-17T07:50:28.999Z,17.91
2018-09-17T07:52:56.558Z,17.86
2018-09-17T07:55:24.131Z,18.06
2018-09-17T07:57:52.190Z,18.09
2018-09-17T08:00:19.802Z,18.06
2018-09-17T08:02:49.084Z,18.15
2018-09-17T08:05:16.606Z,18.21
2018-09-17T08:07:44.189Z,18.33
2018-09-17T08:10:16.333Z,18.19
2018-09-17T08:12:43.752Z,18.29
2018-09-17T08:15:11.234Z,18.36
2018-09-17T08:17:38.789Z,18.55
2018-09-17T08:20:06.433Z,18.74
2018-09-17T08:22:33.959Z,18.80
2018-09-17T08:25:01.384Z,18.70
2018-09-17T08:27:28.858Z,18.91
2018-09-17T08:29:56.482Z,18.95
2018-09-17T08:32:23.926Z,19.06
2018-09-17T08:34:51.456Z,19.08
2018-09-17T08:37:18.972Z,18.84
2018-09-17T08:39:46.567Z,18.94
2018-09-17T08:42:15.371Z,19.01
2018-09-17T08:44:43.001Z,19.17
2018-09-17T08:47:10.515Z,18.99
2018-09-17T08:49:38.858Z,19.11
2018-09-17T08:52:06.340Z,19.24
2018-09-17T08:54:38.478Z,19.35
2018-09-17T08:57:11.720Z,19.23
2018-09-17T08:59:44.853Z,19.22
2018-09-17T09:02:15.568Z,19.63
2018-09-17T09:04:48.603Z,19.72
2018-09-17T09:07:21.580Z,19.80
2018-09-17T09:09:51.225Z,19.95
2018-09-17T09:12:24.841Z,19.78
2018-09-17T09:14:55.136Z,19.70
2018-09-17T09:17:22.709Z,19.76
2018-09-17T09:19:50.141Z,19.70
2018-09-17T09:22:17.631Z,19.98
2018-09-17T09:24:45.168Z,19.81
2018-09-17T09:27:12.638Z,19.91
2018-09-17T09:29:40.567Z,20.02
2018-09-17T09:32:08.006Z,19.79
2018-09-17T09:34:35.498Z,19.90
2018-09-17T09:37:03.041Z,19.79
2018-09-17T09:39:30.541Z,19.80
2018-09-17T09:41:57.984Z,19.68
2018-09-17T09:44:25.466Z,19.71
2018-09-17T09:46:53.491Z,19.89
2018-09-17T09:49:21.060Z,20.00
2018-09-17T09:51:48.521Z,19.94
2018-09-17T09:54:15.936Z,19.92
2018-09-17T09:56:43.419Z,20.01
2018-09-17T09:59:11.164Z,20.12
2018-09-17T10:01:44.264Z,20.07
2018-09-17T10:04:17.193Z,20.02
2018-09-17T10:06:44.677Z,20.24
2018-09-17T10:09:17.661Z,20.19
2018-09-17T10:11:51.264Z,20.31
2018-09-17T10:14:24.113Z,20.33
2018-09-17T10:16:57.063Z,20.44
2018-09-17T10:19:25.248Z,20.30
2018-09-17T10:21:52.688Z,20.40
2018-09-17T10:24:20.157Z,20.64
2018-09-17T10:26:47.838Z,20.75
2018-09-17T10:29:16.086Z,20.70
2018-09-17T10:31:43.873Z,20.74
2018-09-17T10:34:11.420Z,20.82
2018-09-17T10:36:38.855Z,20.86
2018-09-17T10:39:08.763Z,20.83
2018-09-17T10:41:36.366Z,20.87
2018-09-17T10:44:04.030Z,20.80
2018-09-17T10:46:31.618Z,20.81
2018-09-17T10:48:59.027Z,20.85
2018-09-17T10:51:27.248Z,20.90
2018-09-17T10:53:55.012Z,21.00
2018-09-17T10:56:22.569Z,21.13
2018-09-17T10:58:49.959Z,21.11
2018-09-17T11:01:17.484Z,21.25
2018-09-17T11:03:44.978Z,21.34
2018-09-17T11:06:12.762Z,21.29
2018-09-17T11:08:40.253Z,21.38
2018-09-17T11:11:08.490Z,21.28
2018-09-17T11:13:35.954Z,21.40
2018-09-17T11:16:03.970Z,21.47
2018-09-17T11:18:31.784Z,21.54
2018-09-17T11:20:59.211Z,21.44
2018-09-17T11:23:26.673Z,21.38
2018-09-17T11:25:54.109Z,21.59
2018-09-17T11:28:21.590Z,21.67
2018-09-17T11:30:49.066Z,21.69
2018-09-17T11:33:16.497Z,21.73
2018-09-17T11:35:44.091Z,22.00
2018-09-17T11:38:11.815Z,21.90
2018-09-17T11:40:39.239Z,22.11
2018-09-17T11:43:06.793Z,22.31
2018-09-17T11:45:34.247Z,22.26
2018-09-17T11:48:01.714Z,22.27
2018-09-17T11:50:29.645Z,22.31
2018-09-17T11:52:58.006Z,22.46
2018-09-17T11:55:25.426Z,22.43
2018-09-17T11:57:53.105Z,22.52
2018-09-17T12:00:25.962Z,22.66
2018-09-17T12:02:59.026Z,22.67
2018-09-17T12:05:32.113Z,22.71
2018-09-17T12:07:59.679Z,22.58
2018-09-17T12:10:27.815Z,22.61
2018-09-17T12:12:55.244Z,22.83
2018-09-17T12:15:22.767Z,22.72
2018-09-17T12:17:50.226Z,22.90
2018-09-17T12:20:17.731Z,23.14
2018-09-17T12:22:45.298Z,23.34
2018-09-17T12:25:13.474Z,23.79
2018-09-17T12:27:41.873Z,23.97
2018-09-17T12:30:09.335Z,24.36
2018-09-17T12:32:36.802Z,24.55
2018-09-17T12:35:04.323Z,24.91
2018-09-17T12:37:31.856Z,25.18
2018-09-17T12:39:59.397Z,25.67
2018-09-17T12:42:26.916Z,26.64
2018-09-17T12:44:54.354Z,27.25
2018-09-17T12:47:21.769Z,27.67
2018-09-17T12:49:49.187Z,27.57
